Time;durP1;ratioP1;P1;durP2;ratioP2;P2;SDS_P1;SDS_P2;PMS_P1;PMS_P2;Temp;Humidity;BMP_temperature;BMP_pressure;BME280_temperature;BME280_humidity;BME280_pressure;Samples;Min_cycle;Max_cycle;Signal;HPM_P1;HPM_P2
2021/05/20 00:01:50;;;;;;;20.70;3.17;;;7.90;99.90;;;;;;5057913;28;20056;-71
2021/05/20 00:04:15;;;;;;;65.22;4.40;;;7.90;99.90;;;;;;5054965;28;20536;-70
2021/05/20 00:06:41;;;;;;;59.58;3.50;;;7.80;99.90;;;;;;5058463;28;20115;-70
2021/05/20 00:09:08;;;;;;;41.80;2.58;;;7.80;99.90;;;;;;5056956;28;20052;-71
2021/05/20 00:11:34;;;;;;;15.13;2.33;;;7.80;99.90;;;;;;5058626;28;20478;-70
2021/05/20 00:14:00;;;;;;;10.25;1.80;;;7.70;99.90;;;;;;5055697;28;20044;-70
2021/05/20 00:16:25;;;;;;;130.05;4.80;;;7.70;99.90;;;;;;5059941;28;20032;-70
2021/05/20 00:18:51;;;;;;;127.15;5.07;;;7.70;99.90;;;;;;5058027;28;20459;-70
2021/05/20 00:21:17;;;;;;;100.97;4.88;;;7.60;99.90;;;;;;5058846;28;20115;-70
2021/05/20 00:23:43;;;;;;;120.40;5.30;;;7.60;99.90;;;;;;5058214;28;22058;-70
2021/05/20 00:26:13;;;;;;;52.15;3.03;;;7.50;99.90;;;;;;5058204;28;20057;-70
2021/05/20 00:28:40;;;;;;;57.97;5.15;;;7.50;99.90;;;;;;5056311;28;20040;-70
2021/05/20 00:31:06;;;;;;;31.67;4.10;;;7.40;99.90;;;;;;5055938;28;20033;-70
2021/05/20 00:33:31;;;;;;;33.45;2.20;;;7.40;99.90;;;;;;5059976;28;20507;-71
2021/05/20 00:35:57;;;;;;;7.35;1.85;;;7.30;99.90;;;;;;5058029;28;20127;-70
2021/05/20 00:38:23;;;;;;;3.50;2.00;;;7.30;99.90;;;;;;5056063;28;20479;-71
2021/05/20 00:40:49;;;;;;;2.28;1.95;;;7.30;99.90;;;;;;5058345;28;20032;-70
2021/05/20 00:43:15;;;;;;;2.17;2.08;;;7.20;99.90;;;;;;5085611;28;21398;-70
2021/05/20 00:45:41;;;;;;;2.15;2.05;;;7.10;99.90;;;;;;5054926;28;20045;-70
2021/05/20 00:48:07;;;;;;;1.67;1.58;;;7.20;99.90;;;;;;5058245;28;20155;-70
2021/05/20 00:50:32;;;;;;;1.70;1.60;;;7.10;99.90;;;;;;5057761;28;20916;-70
2021/05/20 00:52:58;;;;;;;2.78;1.73;;;7.10;99.90;;;;;;5058261;28;20048;-70
2021/05/20 00:55:30;;;;;;;3.83;3.00;;;7.10;99.90;;;;;;5058624;28;20060;-70
2021/05/20 00:58:00;;;;;;;2.28;2.17;;;7.10;99.90;;;;;;5056661;28;20079;-70
2021/05/20 01:00:27;;;;;;;1.73;1.63;;;7.10;99.90;;;;;;5058574;28;20055;-70
2021/05/20 01:02:53;;;;;;;1.70;1.60;;;7.10;99.90;;;;;;5053956;28;20063;-70
2021/05/20 01:05:19;;;;;;;1.40;1.30;;;7.10;99.90;;;;;;5056608;28;20060;-70
2021/05/20 01:07:44;;;;;;;1.50;1.40;;;7.20;99.90;;;;;;5059315;28;20064;-70
2021/05/20 01:10:11;;;;;;;0.93;0.93;;;7.10;99.90;;;;;;5055623;28;20045;-70
2021/05/20 01:12:37;;;;;;;1.67;1.58;;;7.10;99.90;;;;;;5057202;28;20032;-70
2021/05/20 01:15:03;;;;;;;2.33;1.63;;;7.10;99.90;;;;;;5058815;28;20040;-70
2021/05/20 01:17:29;;;;;;;1.88;1.77;;;7.20;99.90;;;;;;5055905;28;20043;-70
2021/05/20 01:19:55;;;;;;;1.98;1.25;;;7.10;99.90;;;;;;5057816;28;20495;-70
2021/05/20 01:22:21;;;;;;;3.20;1.75;;;7.00;99.90;;;;;;5056718;28;20073;-70
2021/05/20 01:24:47;;;;;;;2.40;1.73;;;7.00;99.90;;;;;;5056850;28;20105;-70
2021/05/20 01:27:14;;;;;;;8.23;2.40;;;6.90;99.90;;;;;;5055864;28;20466;-70
2021/05/20 01:29:44;;;;;;;2.92;2.47;;;7.00;99.90;;;;;;5058130;28;20047;-70
2021/05/20 01:32:10;;;;;;;21.70;3.75;;;7.00;99.90;;;;;;5057740;28;20076;-71
2021/05/20 01:34:37;;;;;;;14.80;3.40;;;6.90;99.90;;;;;;5055514;28;20036;-70
2021/05/20 01:37:08;;;;;;;14.88;2.83;;;6.90;99.90;;;;;;5055910;28;20036;-70
2021/05/20 01:39:36;;;;;;;50.38;4.78;;;6.90;99.90;;;;;;5085448;28;20044;-70
2021/05/20 01:42:02;;;;;;;29.38;3.55;;;6.80;99.90;;;;;;5058930;28;20402;-70
2021/05/20 01:44:29;;;;;;;38.28;5.00;;;6.80;99.90;;;;;;5058421;28;20429;-70
2021/05/20 01:46:54;;;;;;;78.25;6.95;;;6.80;99.90;;;;;;5055389;28;20032;-70
2021/05/20 01:49:20;;;;;;;93.60;7.15;;;6.80;99.90;;;;;;5055931;28;20106;-70
2021/05/20 01:51:46;;;;;;;132.10;7.18;;;6.80;99.90;;;;;;5056103;28;20033;-70
2021/05/20 01:54:12;;;;;;;92.18;5.13;;;6.80;99.90;;;;;;5058301;28;20054;-70
2021/05/20 01:56:38;;;;;;;90.32;5.53;;;6.80;99.90;;;;;;5056187;28;20040;-70
2021/05/20 01:59:04;;;;;;;31.35;3.60;;;6.80;99.90;;;;;;5057467;28;20406;-70
2021/05/20 02:01:30;;;;;;;66.45;3.60;;;6.80;99.90;;;;;;5054788;28;20037;-70
2021/05/20 02:03:56;;;;;;;91.60;4.85;;;6.70;99.90;;;;;;5054711;28;20039;-70
2021/05/20 02:06:22;;;;;;;77.38;3.95;;;6.70;99.90;;;;;;5056534;28;20086;-70
2021/05/20 02:08:48;;;;;;;44.53;3.33;;;6.70;99.90;;;;;;5054711;28;20040;-70
2021/05/20 02:11:14;;;;;;;30.90;2.90;;;6.70;99.90;;;;;;5057591;28;20505;-70
2021/05/20 02:13:40;;;;;;;2.47;2.28;;;6.70;99.90;;;;;;5054665;28;20055;-70
2021/05/20 02:16:06;;;;;;;2.20;2.00;;;6.70;99.90;;;;;;5056148;28;20041;-70
2021/05/20 02:18:33;;;;;;;116.40;7.80;;;6.70;99.90;;;;;;5056327;28;20427;-70
2021/05/20 02:21:00;;;;;;;87.70;7.20;;;6.70;99.90;;;;;;5062528;28;20036;-70
2021/05/20 02:23:25;;;;;;;180.48;11.32;;;6.70;99.90;;;;;;5061979;28;20040;-70
2021/05/20 02:25:51;;;;;;;95.82;7.05;;;6.70;99.90;;;;;;5061806;28;20135;-70
2021/05/20 02:28:17;;;;;;;94.60;6.90;;;6.70;99.90;;;;;;5062472;28;20037;-70
2021/05/20 02:30:43;;;;;;;145.82;8.95;;;6.70;99.90;;;;;;5062108;28;20045;-70
2021/05/20 02:33:09;;;;;;;145.07;9.32;;;6.70;99.90;;;;;;5057406;28;20548;-70
2021/05/20 02:35:35;;;;;;;154.38;10.00;;;6.60;99.90;;;;;;5059264;28;20040;-70
2021/05/20 02:38:02;;;;;;;113.43;6.93;;;6.70;99.90;;;;;;5060859;28;20137;-70
2021/05/20 02:40:28;;;;;;;87.00;6.07;;;6.60;99.90;;;;;;5059466;28;20024;-70
2021/05/20 02:42:54;;;;;;;61.13;5.22;;;6.60;99.90;;;;;;5088593;28;20426;-70
2021/05/20 02:45:23;;;;;;;43.15;4.47;;;6.50;99.90;;;;;;5059390;28;20048;-70
2021/05/20 02:47:50;;;;;;;21.35;3.72;;;6.40;99.90;;;;;;5059586;28;20056;-70
2021/05/20 02:50:17;;;;;;;39.13;6.40;;;6.40;99.90;;;;;;5058794;28;20040;-70
2021/05/20 02:52:44;;;;;;;30.95;4.80;;;6.50;99.90;;;;;;5061543;28;20071;-70
2021/05/20 02:55:15;;;;;;;13.43;5.53;;;6.50;99.90;;;;;;5063090;28;20037;-70
2021/05/20 02:57:43;;;;;;;8.77;6.13;;;6.50;99.90;;;;;;5063351;28;20556;-70
2021/05/20 03:00:10;;;;;;;13.60;7.72;;;6.40;99.90;;;;;;5059920;28;20032;-70
2021/05/20 03:02:36;;;;;;;21.90;9.25;;;6.50;99.90;;;;;;5060024;28;20121;-70
2021/05/20 03:05:03;;;;;;;23.02;8.38;;;6.50;99.90;;;;;;5064657;28;20040;-70
2021/05/20 03:07:29;;;;;;;30.70;8.93;;;6.50;99.90;;;;;;5061612;28;20082;-70
2021/05/20 03:09:55;;;;;;;33.88;10.02;;;6.50;99.90;;;;;;5060191;28;20036;-70
2021/05/20 03:12:21;;;;;;;22.35;7.82;;;6.50;99.90;;;;;;5064275;28;20040;-70
2021/05/20 03:14:47;;;;;;;22.73;7.93;;;6.50;99.90;;;;;;5061267;28;20081;-70
2021/05/20 03:17:13;;;;;;;58.85;11.35;;;6.50;99.90;;;;;;5061732;28;20037;-70
2021/05/20 03:19:39;;;;;;;53.33;10.93;;;6.40;99.90;;;;;;5058350;28;20039;-70
2021/05/20 03:22:08;;;;;;;33.10;8.63;;;6.40;99.90;;;;;;5062894;28;20063;-70
2021/05/20 03:24:35;;;;;;;30.58;7.63;;;6.50;99.90;;;;;;5061546;28;20052;-70
2021/05/20 03:27:01;;;;;;;43.03;10.25;;;6.50;99.90;;;;;;5061807;28;20448;-70
2021/05/20 03:29:27;;;;;;;76.10;12.23;;;6.50;99.90;;;;;;5056533;28;20392;-70
2021/05/20 03:31:53;;;;;;;43.20;12.77;;;6.60;99.90;;;;;;5055157;28;20040;-70
2021/05/20 03:34:19;;;;;;;87.13;11.43;;;6.50;99.90;;;;;;5052762;28;20037;-70
2021/05/20 03:36:44;;;;;;;76.70;12.75;;;6.60;99.90;;;;;;5055048;28;20049;-70
2021/05/20 03:39:10;;;;;;;65.88;14.73;;;6.60;99.90;;;;;;5054287;28;20052;-70
2021/05/20 03:41:36;;;;;;;19.15;11.10;;;6.60;99.90;;;;;;5058207;28;20043;-70
2021/05/20 03:44:02;;;;;;;50.33;14.75;;;6.60;99.90;;;;;;5053815;28;20486;-70
2021/05/20 03:46:28;;;;;;;23.10;11.27;;;6.60;99.90;;;;;;5053183;28;20045;-70
2021/05/20 03:48:54;;;;;;;16.48;10.07;;;6.60;99.90;;;;;;5057745;28;20097;-70
2021/05/20 03:51:20;;;;;;;89.32;14.52;;;6.70;99.90;;;;;;5053999;28;20568;-70
2021/05/20 03:53:46;;;;;;;258.15;19.10;;;6.70;99.90;;;;;;5059279;28;20044;-70
2021/05/20 03:56:12;;;;;;;184.88;16.02;;;6.70;99.90;;;;;;5056985;28;20041;-70
2021/05/20 03:58:37;;;;;;;265.73;21.25;;;6.70;99.90;;;;;;5058821;28;20052;-70
2021/05/20 04:01:03;;;;;;;215.23;19.77;;;6.70;99.90;;;;;;5058975;28;20040;-70
2021/05/20 04:03:31;;;;;;;99.70;13.10;;;6.70;99.90;;;;;;5059549;28;20041;-70
2021/05/20 04:05:58;;;;;;;59.97;13.00;;;6.70;99.90;;;;;;5058741;28;20040;-70
2021/05/20 04:08:24;;;;;;;146.82;16.85;;;6.70;99.90;;;;;;5058088;28;20035;-70
2021/05/20 04:10:51;;;;;;;154.55;17.65;;;6.70;99.90;;;;;;5061259;28;20039;-70
2021/05/20 04:13:34;;;;;;;81.20;16.42;;;6.70;99.90;;;;;;5058738;28;20044;-70
2021/05/20 04:16:00;;;;;;;191.02;24.33;;;6.70;99.90;;;;;;5056503;28;20041;-70
2021/05/20 04:18:26;;;;;;;186.60;23.38;;;6.80;99.90;;;;;;5059996;28;20394;-70
2021/05/20 04:20:52;;;;;;;209.88;24.80;;;6.90;99.90;;;;;;5058110;28;20041;-70
2021/05/20 04:23:18;;;;;;;216.40;24.65;;;6.90;99.90;;;;;;5054053;28;20041;-70
2021/05/20 04:25:45;;;;;;;188.90;21.60;;;6.90;99.90;;;;;;5056344;28;20098;-70
2021/05/20 04:28:11;;;;;;;211.30;22.38;;;6.90;99.90;;;;;;5056003;28;20390;-71
2021/05/20 04:30:37;;;;;;;236.38;24.20;;;6.90;99.90;;;;;;5060780;28;20040;-71
2021/05/20 04:33:04;;;;;;;236.85;23.20;;;6.90;99.90;;;;;;5060044;28;20044;-71
2021/05/20 04:35:30;;;;;;;240.18;25.45;;;7.00;99.90;;;;;;5059687;28;20068;-70
2021/05/20 04:37:56;;;;;;;218.85;27.42;;;7.10;99.90;;;;;;5060531;28;20491;-70
2021/05/20 04:40:21;;;;;;;230.30;24.45;;;7.10;99.90;;;;;;5063062;28;20048;-71
2021/05/20 04:42:47;;;;;;;220.45;24.73;;;7.20;99.90;;;;;;5061464;28;20037;-71
2021/05/20 04:45:13;;;;;;;216.65;26.42;;;7.20;99.90;;;;;;5063721;28;20101;-71
2021/05/20 04:47:39;;;;;;;175.77;24.35;;;7.30;99.90;;;;;;5063044;28;20056;-71
2021/05/20 04:50:06;;;;;;;303.50;25.75;;;7.40;99.90;;;;;;5061812;28;20090;-71
2021/05/20 04:52:32;;;;;;;123.57;20.95;;;7.40;99.90;;;;;;5063543;28;20144;-71
2021/05/20 04:54:57;;;;;;;138.07;18.70;;;7.50;99.90;;;;;;5060938;28;20151;-71
2021/05/20 04:57:23;;;;;;;300.27;21.80;;;7.60;99.90;;;;;;5059499;28;20157;-70
2021/05/20 04:59:49;;;;;;;275.60;23.63;;;7.70;99.90;;;;;;5059787;28;20071;-71
2021/05/20 05:02:15;;;;;;;162.18;18.02;;;7.70;99.90;;;;;;5058372;28;20044;-71
2021/05/20 05:04:41;;;;;;;167.15;17.83;;;7.80;99.90;;;;;;5058131;28;20056;-71
2021/05/20 05:07:06;;;;;;;146.82;18.17;;;7.80;99.90;;;;;;5053026;28;20040;-71
2021/05/20 05:09:32;;;;;;;212.65;21.08;;;7.80;99.90;;;;;;5057440;28;20071;-71
2021/05/20 05:11:57;;;;;;;278.75;26.55;;;7.90;99.90;;;;;;5055485;28;20052;-71
2021/05/20 05:14:23;;;;;;;197.25;21.00;;;8.00;99.90;;;;;;5058222;28;20036;-71
2021/05/20 05:16:49;;;;;;;103.82;17.45;;;8.00;99.90;;;;;;5057960;28;20056;-71
2021/05/20 05:19:15;;;;;;;144.18;18.33;;;8.00;99.90;;;;;;5054082;28;20048;-71
2021/05/20 05:21:40;;;;;;;117.80;19.45;;;8.10;99.90;;;;;;5053832;28;20032;-72
2021/05/20 05:24:07;;;;;;;184.88;24.00;;;8.20;99.90;;;;;;5057981;28;20075;-72
2021/05/20 05:26:32;;;;;;;155.05;22.27;;;8.30;99.90;;;;;;5060048;28;20502;-72
2021/05/20 05:28:58;;;;;;;195.50;23.58;;;8.30;99.90;;;;;;5056490;28;20036;-73
2021/05/20 05:31:25;;;;;;;192.18;23.00;;;8.40;99.90;;;;;;5056693;28;20032;-72
2021/05/20 05:33:51;;;;;;;132.68;20.00;;;8.50;99.90;;;;;;5055577;28;20403;-74
2021/05/20 05:36:18;;;;;;;173.60;27.35;;;8.60;99.90;;;;;;5055093;28;20120;-73
2021/05/20 05:38:44;;;;;;;101.47;21.42;;;8.60;99.90;;;;;;5055972;28;20547;-73
2021/05/20 05:41:11;;;;;;;158.50;24.63;;;8.60;99.90;;;;;;5056244;28;20121;-74
2021/05/20 05:43:36;;;;;;;125.15;26.38;;;8.70;99.90;;;;;;5059887;28;20140;-74
2021/05/20 05:46:02;;;;;;;157.65;26.42;;;8.80;99.90;;;;;;5058031;28;20478;-74
2021/05/20 05:48:28;;;;;;;178.98;29.17;;;8.90;99.90;;;;;;5055276;28;20040;-74
2021/05/20 05:50:56;;;;;;;131.10;26.15;;;8.90;99.90;;;;;;5058363;28;20043;-73
2021/05/20 05:53:22;;;;;;;45.35;20.88;;;9.00;99.90;;;;;;5055200;28;20558;-74
2021/05/20 05:55:48;;;;;;;90.45;24.73;;;9.10;99.90;;;;;;5056060;28;20049;-73
2021/05/20 05:58:14;;;;;;;72.68;23.83;;;9.10;99.90;;;;;;5057397;28;20750;-73
2021/05/20 06:00:40;;;;;;;51.13;23.50;;;9.20;99.90;;;;;;5052094;28;20446;-74
2021/05/20 06:03:06;;;;;;;80.82;24.08;;;9.30;99.90;;;;;;5053781;28;20172;-74
2021/05/20 06:05:32;;;;;;;50.70;22.95;;;9.40;99.90;;;;;;5051995;28;20040;-74
2021/05/20 06:07:58;;;;;;;50.72;21.60;;;9.40;99.90;;;;;;5055328;28;20056;-74
2021/05/20 06:10:24;;;;;;;85.47;22.77;;;9.50;99.90;;;;;;5056015;28;20651;-74
2021/05/20 06:12:50;;;;;;;33.33;20.88;;;9.60;99.90;;;;;;5053334;28;20044;-74
2021/05/20 06:15:16;;;;;;;23.08;20.40;;;9.60;99.90;;;;;;5055949;28;20557;-74
2021/05/20 06:17:42;;;;;;;85.35;23.50;;;9.70;99.90;;;;;;5055625;28;20041;-74
2021/05/20 06:20:08;;;;;;;84.55;23.58;;;9.90;99.90;;;;;;5055738;28;20093;-74
2021/05/20 06:22:35;;;;;;;58.15;21.80;;;10.00;99.90;;;;;;5054387;28;20043;-74
2021/05/20 06:25:01;;;;;;;41.45;22.13;;;10.10;99.90;;;;;;5054766;28;20033;-74
2021/05/20 06:27:27;;;;;;;26.80;23.48;;;10.20;99.90;;;;;;5053876;28;20036;-74
2021/05/20 06:29:54;;;;;;;29.33;24.13;;;10.30;99.90;;;;;;5054742;28;20036;-74
2021/05/20 06:32:20;;;;;;;25.00;22.25;;;10.50;99.90;;;;;;5052733;28;20037;-74
2021/05/20 06:34:46;;;;;;;26.27;23.58;;;10.50;99.90;;;;;;5053096;28;20040;-74
2021/05/20 06:37:12;;;;;;;23.48;21.08;;;10.70;99.90;;;;;;5052726;28;20120;-74
2021/05/20 06:39:37;;;;;;;20.92;19.00;;;10.90;99.90;;;;;;5057791;28;20762;-74
2021/05/20 06:42:04;;;;;;;22.90;20.80;;;11.10;99.90;;;;;;5055973;28;20040;-75
2021/05/20 06:44:30;;;;;;;21.75;19.80;;;11.30;99.90;;;;;;5055709;28;20036;-75
2021/05/20 06:46:55;;;;;;;20.52;18.67;;;11.50;99.90;;;;;;5052725;28;21494;-75
2021/05/20 06:49:22;;;;;;;19.98;17.98;;;11.70;99.90;;;;;;5052977;28;20056;-75
2021/05/20 06:51:47;;;;;;;19.73;17.83;;;12.00;99.90;;;;;;5054747;28;20032;-75
2021/05/20 06:54:14;;;;;;;18.27;16.67;;;12.30;99.90;;;;;;5052475;28;20043;-75
2021/05/20 06:56:42;;;;;;;19.80;16.95;;;12.70;99.90;;;;;;5053035;28;20061;-75
2021/05/20 07:01:52;;;;;;;15.95;14.40;;;13.10;99.90;;;;;;5053429;28;20471;-75
2021/05/20 07:04:17;;;;;;;17.13;15.35;;;13.40;99.90;;;;;;5051590;28;20048;-75
2021/05/20 07:06:43;;;;;;;16.90;14.90;;;13.40;99.90;;;;;;5055933;28;20391;-75
2021/05/20 07:09:09;;;;;;;17.15;13.68;;;13.40;99.90;;;;;;5052054;28;20478;-75
2021/05/20 07:11:35;;;;;;;13.75;12.55;;;13.60;99.90;;;;;;5054546;28;20036;-75
2021/05/20 07:14:00;;;;;;;14.95;13.57;;;13.60;99.90;;;;;;5056367;28;20041;-75
2021/05/20 07:16:26;;;;;;;12.68;11.40;;;13.70;99.90;;;;;;5055162;28;20520;-75
2021/05/20 07:18:52;;;;;;;13.00;11.73;;;13.90;99.90;;;;;;5052010;28;20044;-75
2021/05/20 07:21:18;;;;;;;10.95;9.98;;;14.10;99.90;;;;;;5053367;28;20041;-75
2021/05/20 07:23:44;;;;;;;12.18;11.07;;;14.30;99.90;;;;;;5059494;28;20044;-75
2021/05/20 07:26:10;;;;;;;15.63;9.80;;;14.50;99.90;;;;;;5055511;28;20044;-75
2021/05/20 07:28:35;;;;;;;10.07;8.98;;;14.60;99.90;;;;;;5056422;28;20036;-76
2021/05/20 07:31:01;;;;;;;8.43;7.63;;;14.70;99.90;;;;;;5057863;28;20077;-76
2021/05/20 07:33:28;;;;;;;10.07;8.13;;;15.00;99.90;;;;;;5057294;28;20035;-76
2021/05/20 07:35:53;;;;;;;7.32;6.63;;;15.30;99.90;;;;;;5060169;28;20143;-76
2021/05/20 07:38:19;;;;;;;7.60;6.75;;;15.60;99.90;;;;;;5058573;28;20574;-76
2021/05/20 07:40:45;;;;;;;7.18;6.47;;;16.00;99.10;;;;;;5057632;28;20119;-76
2021/05/20 07:43:11;;;;;;;7.80;6.88;;;16.10;98.50;;;;;;5056481;28;20116;-76
2021/05/20 07:45:36;;;;;;;8.32;7.35;;;16.20;97.60;;;;;;5057300;28;20048;-76
2021/05/20 07:48:02;;;;;;;7.63;6.93;;;16.10;97.90;;;;;;5058277;28;20127;-76
2021/05/20 07:50:29;;;;;;;7.68;5.55;;;16.10;97.90;;;;;;5061116;28;20792;-77
2021/05/20 07:52:54;;;;;;;7.90;6.07;;;16.00;96.80;;;;;;5059578;28;20052;-76
2021/05/20 07:55:20;;;;;;;5.80;5.20;;;16.10;97.00;;;;;;5055154;28;20191;-76
2021/05/20 07:57:47;;;;;;;6.00;4.70;;;16.10;94.50;;;;;;5057920;28;20036;-76
2021/05/20 08:00:13;;;;;;;5.88;4.97;;;16.20;95.60;;;;;;5059132;28;20356;-77
2021/05/20 08:02:54;;;;;;;5.45;4.95;;;16.30;95.90;;;;;;5059389;28;20399;-77
2021/05/20 08:10:46;;;;;;;6.60;5.53;;;16.10;92.90;;;;;;5057116;28;20081;-77
2021/05/20 08:13:12;;;;;;;4.72;4.25;;;15.90;92.80;;;;;;5056052;28;20136;-77
2021/05/20 08:15:38;;;;;;;6.55;5.30;;;15.80;92.30;;;;;;5055528;28;20119;-78
2021/05/20 08:18:04;;;;;;;5.88;4.28;;;15.90;92.60;;;;;;5059784;28;20800;-77
2021/05/20 08:20:30;;;;;;;6.07;4.30;;;16.00;92.20;;;;;;5057363;28;20550;-77
2021/05/20 08:22:56;;;;;;;6.45;4.70;;;16.00;91.50;;;;;;5055716;28;20099;-77
2021/05/20 08:25:22;;;;;;;5.97;4.20;;;15.90;92.30;;;;;;5059388;28;20044;-77
2021/05/20 08:27:48;;;;;;;5.10;4.38;;;16.00;92.60;;;;;;5058028;28;20123;-77
2021/05/20 08:30:15;;;;;;;7.15;4.00;;;16.20;92.70;;;;;;5056207;28;21537;-77
2021/05/20 08:32:41;;;;;;;4.53;3.97;;;16.40;93.10;;;;;;5053515;28;20044;-77
2021/05/20 08:35:08;;;;;;;4.90;3.72;;;16.40;93.40;;;;;;5055371;28;20595;-78
2021/05/20 08:37:34;;;;;;;6.40;4.07;;;16.50;93.70;;;;;;5059065;28;20075;-78
2021/05/20 08:40:00;;;;;;;5.13;4.35;;;16.70;92.70;;;;;;5057766;28;20068;-78
2021/05/20 08:42:26;;;;;;;7.45;4.28;;;16.60;93.50;;;;;;5054717;28;20468;-78
2021/05/20 08:44:52;;;;;;;5.85;3.40;;;16.70;93.80;;;;;;5057660;28;20081;-77
2021/05/20 08:47:18;;;;;;;3.92;3.58;;;16.80;93.40;;;;;;5056307;28;20033;-77
2021/05/20 08:49:47;;;;;;;4.43;3.78;;;16.70;93.60;;;;;;5057896;28;20044;-77
2021/05/20 08:52:14;;;;;;;5.30;3.20;;;16.60;94.00;;;;;;5054719;28;20033;-77
2021/05/20 08:54:40;;;;;;;6.13;3.13;;;16.50;93.90;;;;;;5059178;28;20047;-78
2021/05/20 08:57:06;;;;;;;4.68;2.88;;;16.50;94.20;;;;;;5058066;28;20045;-77
2021/05/20 08:59:32;;;;;;;5.82;2.78;;;16.60;94.10;;;;;;5058271;28;20166;-77
2021/05/20 09:01:59;;;;;;;2.85;2.20;;;16.50;92.60;;;;;;5055853;28;20128;-78
2021/05/20 09:04:25;;;;;;;5.55;2.95;;;16.60;91.10;;;;;;5057051;28;20063;-78
2021/05/20 09:07:05;;;;;;;3.28;2.17;;;16.80;91.90;;;;;;5059341;28;20037;-77
2021/05/20 09:09:35;;;;;;;3.92;1.83;;;17.10;90.20;;;;;;5053887;28;20032;-78
2021/05/20 09:12:10;;;;;;;3.53;2.22;;;17.10;88.90;;;;;;5055717;28;20036;-78
2021/05/20 09:14:40;;;;;;;5.90;2.00;;;17.30;88.70;;;;;;5085383;28;20041;-78
2021/05/20 09:17:10;;;;;;;3.85;2.47;;;17.50;90.60;;;;;;5056439;28;20137;-77
2021/05/20 09:19:36;;;;;;;2.28;1.58;;;17.60;88.30;;;;;;5056328;28;20497;-77
2021/05/20 09:22:10;;;;;;;3.47;2.80;;;17.70;86.40;;;;;;5055622;28;20053;-78
2021/05/20 09:24:53;;;;;;;3.65;2.30;;;17.60;90.40;;;;;;5053628;28;20032;-77
2021/05/20 09:27:31;;;;;;;1.70;1.13;;;17.60;90.00;;;;;;5054056;28;20070;-77
2021/05/20 09:30:12;;;;;;;2.83;1.15;;;17.50;85.10;;;;;;5054097;28;20048;-77
2021/05/20 09:32:43;;;;;;;1.48;0.98;;;17.60;85.30;;;;;;5056367;28;20052;-77
2021/05/20 09:35:10;;;;;;;5.95;1.30;;;17.90;84.10;;;;;;5054746;28;20041;-78
2021/05/20 09:38:02;;;;;;;3.55;1.50;;;17.90;83.10;;;;;;5056009;28;20098;-77
2021/05/20 09:40:37;;;;;;;2.25;1.52;;;18.10;83.80;;;;;;5057093;28;20123;-77
2021/05/20 09:43:24;;;;;;;1.85;1.15;;;18.30;84.30;;;;;;5055341;28;20119;-77
2021/05/20 09:45:52;;;;;;;2.83;1.10;;;18.40;79.30;;;;;;5055263;28;20052;-77
2021/05/20 09:48:21;;;;;;;2.85;1.23;;;18.50;84.20;;;;;;5053897;28;20056;-77
2021/05/20 09:50:49;;;;;;;4.50;1.75;;;18.40;84.20;;;;;;5054427;28;20045;-78
2021/05/20 09:53:17;;;;;;;2.78;1.27;;;18.70;88.80;;;;;;5055739;28;20116;-78
2021/05/20 09:55:50;;;;;;;2.70;1.20;;;18.90;84.60;;;;;;5056110;28;20186;-78
2021/05/20 09:58:15;;;;;;;3.78;1.42;;;19.10;78.50;;;;;;5053691;28;20043;-78
2021/05/20 10:00:41;;;;;;;3.92;1.58;;;18.90;80.70;;;;;;5054502;28;20045;-78
2021/05/20 10:03:09;;;;;;;2.92;1.20;;;18.80;79.80;;;;;;5056882;28;20493;-77
2021/05/20 10:05:38;;;;;;;2.08;0.98;;;18.50;82.10;;;;;;5051813;28;20116;-77
2021/05/20 10:08:06;;;;;;;2.30;0.90;;;18.30;80.20;;;;;;5055906;28;20520;-78
2021/05/20 10:10:37;;;;;;;3.55;0.75;;;18.30;79.10;;;;;;5056525;28;20033;-78
2021/05/20 10:13:11;;;;;;;3.33;1.05;;;18.60;82.10;;;;;;5056358;28;20371;-79
2021/05/20 10:15:40;;;;;;;6.65;1.27;;;18.60;82.30;;;;;;5055954;28;20060;-78
2021/05/20 10:18:08;;;;;;;2.08;1.35;;;18.70;79.10;;;;;;5055996;28;20050;-77
2021/05/20 10:20:34;;;;;;;2.17;1.30;;;18.80;76.60;;;;;;5085999;28;20059;-77
2021/05/20 10:23:05;;;;;;;3.90;1.25;;;19.00;75.70;;;;;;5057376;28;20037;-77
2021/05/20 10:25:31;;;;;;;3.97;0.90;;;19.00;76.20;;;;;;5053675;28;20043;-78
2021/05/20 10:27:58;;;;;;;4.82;1.33;;;18.90;71.60;;;;;;5053545;28;20048;-77
2021/05/20 10:30:25;;;;;;;2.08;1.25;;;19.00;77.30;;;;;;5055663;28;20037;-77
2021/05/20 10:32:56;;;;;;;1.85;1.35;;;19.00;74.40;;;;;;5054041;28;20441;-77
2021/05/20 10:35:22;;;;;;;2.58;1.13;;;18.60;74.60;;;;;;5053714;28;20113;-77
2021/05/20 10:37:58;;;;;;;2.47;1.05;;;18.40;76.30;;;;;;5058561;28;20041;-77
2021/05/20 10:40:24;;;;;;;4.95;1.50;;;18.40;77.20;;;;;;5055321;28;20087;-77
2021/05/20 10:43:05;;;;;;;2.70;1.45;;;18.20;79.30;;;;;;5051777;28;20040;-77
2021/05/20 10:45:31;;;;;;;2.30;1.80;;;18.20;79.10;;;;;;5052737;28;20040;-77
2021/05/20 10:48:03;;;;;;;6.97;2.28;;;18.10;79.10;;;;;;5059267;28;20398;-77
2021/05/20 10:50:51;;;;;;;2.65;1.20;;;18.20;78.60;;;;;;5054833;28;20044;-77
2021/05/20 10:53:50;;;;;;;5.45;1.67;;;18.10;78.10;;;;;;5052652;28;20458;-77
2021/05/20 10:56:15;;;;;;;5.03;1.58;;;18.10;75.00;;;;;;5057302;28;20258;-77
2021/05/20 10:58:47;;;;;;;4.65;2.08;;;18.00;76.10;;;;;;5058999;28;20809;-77
2021/05/20 11:01:23;;;;;;;4.40;1.52;;;17.90;81.50;;;;;;5056118;28;20120;-77
2021/05/20 11:03:53;;;;;;;3.45;2.13;;;17.90;76.30;;;;;;5056009;28;20044;-77
2021/05/20 11:06:26;;;;;;;7.78;5.05;;;18.00;77.20;;;;;;5055507;28;20104;-77
2021/05/20 11:08:52;;;;;;;8.85;5.57;;;18.00;77.70;;;;;;5054123;28;20032;-77
2021/05/20 11:11:30;;;;;;;8.32;6.93;;;18.10;78.50;;;;;;5057127;28;20040;-77
2021/05/20 11:13:57;;;;;;;11.02;8.77;;;18.20;76.80;;;;;;5060434;28;20464;-77
2021/05/20 11:16:33;;;;;;;11.23;7.95;;;18.30;79.00;;;;;;5054275;28;20041;-77
2021/05/20 11:19:24;;;;;;;8.93;8.00;;;18.40;78.60;;;;;;5055468;28;20036;-77
2021/05/20 11:22:05;;;;;;;7.80;6.97;;;18.40;78.20;;;;;;5052426;28;20040;-78
2021/05/20 11:24:39;;;;;;;7.68;6.25;;;18.50;73.30;;;;;;5054841;28;20474;-77
2021/05/20 11:27:24;;;;;;;8.35;7.18;;;18.60;70.90;;;;;;5053302;28;20033;-77
2021/05/20 11:29:50;;;;;;;9.27;7.47;;;18.70;77.00;;;;;;5053177;28;20049;-77
2021/05/20 11:32:27;;;;;;;8.32;7.05;;;18.90;72.90;;;;;;5086490;28;20110;-77
2021/05/20 11:37:30;;;;;;;9.43;6.53;;;19.00;73.90;;;;;;5053023;28;20044;-77
2021/05/20 11:39:56;;;;;;;5.93;3.85;;;19.10;71.80;;;;;;5056236;28;20087;-77
2021/05/20 11:42:23;;;;;;;5.55;5.00;;;19.20;65.10;;;;;;5052888;28;20686;-77
2021/05/20 11:44:49;;;;;;;6.20;5.55;;;19.20;66.90;;;;;;5054802;28;20079;-77
2021/05/20 11:47:15;;;;;;;5.72;4.72;;;19.30;68.60;;;;;;5054233;28;20112;-77
2021/05/20 11:49:44;;;;;;;8.38;5.15;;;19.40;62.60;;;;;;5056239;28;20067;-78
2021/05/20 11:52:11;;;;;;;5.35;3.85;;;19.40;64.60;;;;;;5054250;28;20040;-79
2021/05/20 11:54:39;;;;;;;5.00;3.75;;;19.40;63.30;;;;;;5053109;28;20442;-79
2021/05/20 11:57:08;;;;;;;6.32;4.72;;;19.40;62.70;;;;;;5052458;28;20068;-79
2021/05/20 11:59:37;;;;;;;5.05;3.80;;;19.50;66.90;;;;;;5054333;28;20407;-79
2021/05/20 12:02:15;;;;;;;7.72;5.10;;;19.50;69.30;;;;;;5056112;28;20142;-80
2021/05/20 12:04:42;;;;;;;5.22;4.22;;;19.60;67.10;;;;;;5054616;28;20045;-77
2021/05/20 12:07:21;;;;;;;8.40;3.80;;;19.50;67.50;;;;;;5052014;28;20447;-77
2021/05/20 12:09:47;;;;;;;6.03;3.20;;;19.50;69.20;;;;;;5058901;28;20135;-78
2021/05/20 12:12:16;;;;;;;3.67;3.13;;;19.40;63.10;;;;;;5056417;28;20128;-77
2021/05/20 12:14:42;;;;;;;5.13;3.50;;;19.30;65.50;;;;;;5058962;28;20075;-78
2021/05/20 12:17:09;;;;;;;7.63;3.78;;;19.30;68.30;;;;;;5088836;28;20060;-77
2021/05/20 12:19:55;;;;;;;4.55;3.08;;;19.40;66.30;;;;;;5054883;28;20040;-78
2021/05/20 12:22:28;;;;;;;3.78;2.85;;;19.40;64.60;;;;;;5055991;28;20041;-78
2021/05/20 12:25:10;;;;;;;5.07;2.50;;;19.50;63.00;;;;;;5091394;27;20550;-78
2021/05/20 12:27:36;;;;;;;3.72;2.40;;;19.50;64.90;;;;;;5056602;28;20082;-78
2021/05/20 12:30:05;;;;;;;3.97;1.90;;;19.60;67.40;;;;;;5055554;28;20471;-75
2021/05/20 12:32:46;;;;;;;2.35;1.75;;;19.60;65.00;;;;;;5056019;28;20431;-76
2021/05/20 12:35:17;;;;;;;6.65;2.00;;;19.60;62.10;;;;;;5055333;28;20545;-75
2021/05/20 12:37:57;;;;;;;3.55;2.13;;;19.60;64.70;;;;;;5057392;28;20036;-76
2021/05/20 12:40:34;;;;;;;5.30;2.88;;;19.60;64.60;;;;;;5057641;28;20049;-75
2021/05/20 12:43:14;;;;;;;3.88;2.40;;;19.60;63.30;;;;;;5058728;28;20037;-75
2021/05/20 12:45:41;;;;;;;9.32;3.50;;;19.60;66.00;;;;;;5057415;28;20106;-75
2021/05/20 12:48:32;;;;;;;5.50;4.07;;;19.50;65.70;;;;;;5057409;28;20037;-75
2021/05/20 12:51:05;;;;;;;6.47;5.75;;;19.30;68.60;;;;;;5058139;28;20040;-76
2021/05/20 12:53:32;;;;;;;9.13;6.10;;;19.40;68.90;;;;;;5057690;28;20040;-75
2021/05/20 12:56:01;;;;;;;9.50;5.68;;;19.40;70.80;;;;;;5056967;28;20490;-75